Time;durP1;ratioP1;P1;durP2;ratioP2;P2;SDS_P1;SDS_P2;PMS_P1;PMS_P2;Temp;Humidity;BMP_temperature;BMP_pressure;BME280_temperature;BME280_humidity;BME280_pressure;Samples;Min_cycle;Max_cycle;Signal;HPM_P1;HPM_P2
2023/09/26 00:01:15;;;;;;;0.80;0.80;;;;;;;;;;5115610;28;20526;-62
2023/09/26 00:03:42;;;;;;;0.80;0.80;;;;;;;;;;5115892;28;20445;-62
2023/09/26 00:06:19;;;;;;;0.80;0.80;;;;;;;;;;5115455;28;20476;-62
2023/09/26 00:08:47;;;;;;;0.70;0.70;;;;;;;;;;5116087;28;20833;-62
2023/09/26 00:11:15;;;;;;;0.80;0.80;;;;;;;;;;5115608;28;20441;-62
2023/09/26 00:13:43;;;;;;;0.80;0.80;;;;;;;;;;5115518;28;20451;-63
2023/09/26 00:16:12;;;;;;;0.80;0.80;;;;;;;;;;5115662;28;20468;-62
2023/09/26 00:18:40;;;;;;;0.80;0.80;;;;;;;;;;5115555;28;20464;-62
2023/09/26 00:21:08;;;;;;;0.80;0.80;;;;;;;;;;5115182;28;20493;-62
2023/09/26 00:23:35;;;;;;;0.80;0.80;;;;;;;;;;5115117;28;20454;-62
2023/09/26 00:26:04;;;;;;;0.80;0.80;;;;;;;;;;5115453;28;20479;-62
2023/09/26 00:28:31;;;;;;;0.80;0.80;;;;;;;;;;5115660;28;20542;-62
2023/09/26 00:31:03;;;;;;;0.80;0.80;;;;;;;;;;5115168;28;20436;-62
2023/09/26 00:33:32;;;;;;;0.73;0.73;;;;;;;;;;5115323;28;20527;-62
2023/09/26 00:36:07;;;;;;;0.80;0.80;;;;;;;;;;5115186;28;20443;-62
2023/09/26 00:38:34;;;;;;;0.80;0.80;;;;;;;;;;5115929;28;20818;-62
2023/09/26 00:41:01;;;;;;;0.80;0.80;;;;;;;;;;5115179;28;20555;-62
2023/09/26 00:43:28;;;;;;;0.80;0.80;;;;;;;;;;5115086;28;20851;-62
2023/09/26 00:45:56;;;;;;;0.80;0.80;;;;;;;;;;5114815;28;20476;-62
2023/09/26 00:48:25;;;;;;;0.80;0.80;;;;;;;;;;5114575;28;20444;-62
2023/09/26 00:50:54;;;;;;;0.80;0.80;;;;;;;;;;5115008;28;20528;-62
2023/09/26 00:53:23;;;;;;;0.80;0.80;;;;;;;;;;5114658;28;20454;-62
2023/09/26 00:55:50;;;;;;;0.90;0.90;;;;;;;;;;5114912;28;20439;-62
2023/09/26 00:58:18;;;;;;;0.90;0.90;;;;;;;;;;5114697;28;20428;-62
2023/09/26 01:00:46;;;;;;;0.80;0.80;;;;;;;;;;5114719;28;20439;-62
2023/09/26 01:03:13;;;;;;;0.90;0.90;;;;;;;;;;5114618;28;20438;-62
2023/09/26 01:05:40;;;;;;;3.10;2.90;;;;;;;;;;5114092;28;20489;-62
2023/09/26 01:08:09;;;;;;;0.80;0.80;;;;;;;;;;5114261;28;20925;-62
2023/09/26 01:10:37;;;;;;;0.80;0.80;;;;;;;;;;5114116;28;20442;-62
2023/09/26 01:13:05;;;;;;;0.80;0.80;;;;;;;;;;5114436;28;20440;-62
2023/09/26 01:15:33;;;;;;;0.70;0.70;;;;;;;;;;5114270;28;20531;-62
2023/09/26 01:18:00;;;;;;;0.80;0.80;;;;;;;;;;5114389;28;20436;-62
2023/09/26 01:20:28;;;;;;;0.80;0.80;;;;;;;;;;5114546;28;20440;-62
2023/09/26 01:22:57;;;;;;;0.70;0.70;;;;;;;;;;5114322;28;20774;-62
2023/09/26 01:25:25;;;;;;;0.80;0.80;;;;;;;;;;5113639;28;20488;-62
2023/09/26 01:27:52;;;;;;;0.80;0.80;;;;;;;;;;5113858;28;20951;-62
2023/09/26 01:30:20;;;;;;;0.80;0.80;;;;;;;;;;5114051;28;20445;-62
2023/09/26 01:32:47;;;;;;;0.70;0.70;;;;;;;;;;5114153;28;20484;-62
2023/09/26 01:35:15;;;;;;;0.80;0.80;;;;;;;;;;5113685;28;20440;-62
2023/09/26 01:37:43;;;;;;;0.80;0.80;;;;;;;;;;5114097;28;20621;-62
2023/09/26 01:40:11;;;;;;;0.80;0.80;;;;;;;;;;5113637;28;20436;-62
2023/09/26 01:42:40;;;;;;;0.70;0.70;;;;;;;;;;5113964;28;20439;-62
2023/09/26 01:45:09;;;;;;;0.80;0.80;;;;;;;;;;5113665;28;20835;-62
2023/09/26 01:47:41;;;;;;;0.80;0.80;;;;;;;;;;5113545;28;20440;-62
2023/09/26 01:50:09;;;;;;;0.80;0.80;;;;;;;;;;5113522;28;20913;-62
2023/09/26 01:52:36;;;;;;;0.90;0.90;;;;;;;;;;5113522;28;20446;-62
2023/09/26 01:55:03;;;;;;;0.90;0.90;;;;;;;;;;5113398;28;20439;-62
2023/09/26 01:57:31;;;;;;;0.80;0.80;;;;;;;;;;5114211;28;20436;-62
2023/09/26 02:00:01;;;;;;;0.80;0.80;;;;;;;;;;5113730;28;20534;-62
2023/09/26 02:02:28;;;;;;;0.80;0.80;;;;;;;;;;5113793;28;20507;-62
2023/09/26 02:04:56;;;;;;;0.80;0.80;;;;;;;;;;5113634;28;20441;-62
2023/09/26 02:07:23;;;;;;;0.80;0.80;;;;;;;;;;5113284;28;20989;-62
2023/09/26 02:09:50;;;;;;;0.80;0.80;;;;;;;;;;5113268;28;20974;-61
2023/09/26 02:12:17;;;;;;;0.80;0.80;;;;;;;;;;5113495;28;20861;-62
2023/09/26 02:14:44;;;;;;;0.80;0.80;;;;;;;;;;5113950;28;20457;-62
2023/09/26 02:17:13;;;;;;;0.80;0.80;;;;;;;;;;5113454;28;20523;-62
2023/09/26 02:19:41;;;;;;;0.80;0.80;;;;;;;;;;5113568;28;20443;-62
2023/09/26 02:22:08;;;;;;;0.70;0.70;;;;;;;;;;5113446;28;20435;-62
2023/09/26 02:24:35;;;;;;;0.80;0.80;;;;;;;;;;5113058;28;20568;-62
2023/09/26 02:27:03;;;;;;;0.80;0.80;;;;;;;;;;5113289;28;20489;-62
2023/09/26 02:29:30;;;;;;;0.80;0.80;;;;;;;;;;5113837;28;20530;-62
2023/09/26 02:31:57;;;;;;;0.80;0.80;;;;;;;;;;5113154;28;20539;-62
2023/09/26 02:34:25;;;;;;;0.80;0.80;;;;;;;;;;5113625;28;20526;-62
2023/09/26 02:36:53;;;;;;;0.80;0.80;;;;;;;;;;5113304;28;20451;-62
2023/09/26 02:39:20;;;;;;;0.80;0.80;;;;;;;;;;5113047;28;20444;-62
2023/09/26 02:41:47;;;;;;;0.80;0.80;;;;;;;;;;5113061;28;20928;-61
2023/09/26 02:44:14;;;;;;;0.70;0.70;;;;;;;;;;5113214;28;20440;-62
2023/09/26 02:46:41;;;;;;;0.70;0.70;;;;;;;;;;5113022;28;20824;-62
2023/09/26 02:49:09;;;;;;;0.90;0.90;;;;;;;;;;5113270;28;20443;-62
2023/09/26 02:51:37;;;;;;;0.83;0.83;;;;;;;;;;5113141;28;20565;-62
2023/09/26 02:54:05;;;;;;;0.80;0.80;;;;;;;;;;5113411;28;20450;-62
2023/09/26 02:56:32;;;;;;;0.80;0.80;;;;;;;;;;5113088;28;20442;-62
2023/09/26 02:58:59;;;;;;;1.40;1.30;;;;;;;;;;5113171;28;20522;-62
2023/09/26 03:01:26;;;;;;;0.80;0.80;;;;;;;;;;5112985;28;20439;-62
2023/09/26 03:03:54;;;;;;;0.80;0.80;;;;;;;;;;5112707;28;20442;-62
2023/09/26 03:06:22;;;;;;;0.80;0.80;;;;;;;;;;5112884;28;20467;-62
2023/09/26 03:08:50;;;;;;;0.80;0.80;;;;;;;;;;5112993;28;20434;-62
2023/09/26 03:11:17;;;;;;;0.80;0.80;;;;;;;;;;5113378;28;20439;-62
2023/09/26 03:13:45;;;;;;;0.83;0.83;;;;;;;;;;5117018;28;20988;-62
2023/09/26 03:16:14;;;;;;;0.80;0.80;;;;;;;;;;5116652;28;20889;-62
2023/09/26 03:18:41;;;;;;;0.80;0.80;;;;;;;;;;5116424;28;20450;-62
2023/09/26 03:21:09;;;;;;;0.90;0.90;;;;;;;;;;5116719;28;20434;-62
2023/09/26 03:23:37;;;;;;;0.80;0.80;;;;;;;;;;5116425;28;20439;-62
2023/09/26 03:26:10;;;;;;;0.80;0.80;;;;;;;;;;5117033;28;20491;-62
2023/09/26 03:28:38;;;;;;;0.80;0.80;;;;;;;;;;5116235;28;20431;-62
2023/09/26 03:31:06;;;;;;;0.80;0.80;;;;;;;;;;5116166;28;20467;-62
2023/09/26 03:33:33;;;;;;;0.80;0.80;;;;;;;;;;5116265;28;20439;-62
2023/09/26 03:36:00;;;;;;;0.70;0.70;;;;;;;;;;5116354;28;20872;-62
2023/09/26 03:38:28;;;;;;;0.80;0.80;;;;;;;;;;5116332;28;20443;-62
2023/09/26 03:40:57;;;;;;;0.80;0.80;;;;;;;;;;5116432;28;20436;-63
2023/09/26 03:43:26;;;;;;;0.80;0.80;;;;;;;;;;5115899;28;20447;-62
2023/09/26 03:45:54;;;;;;;0.80;0.80;;;;;;;;;;5116141;28;20478;-62
2023/09/26 03:48:21;;;;;;;0.80;0.80;;;;;;;;;;5116095;28;20432;-62
2023/09/26 03:50:49;;;;;;;0.90;0.90;;;;;;;;;;5115833;28;20533;-62
2023/09/26 03:53:16;;;;;;;0.80;0.80;;;;;;;;;;5116087;28;20445;-62
2023/09/26 03:55:43;;;;;;;0.80;0.80;;;;;;;;;;5099320;28;20451;-62
2023/09/26 03:58:11;;;;;;;0.90;0.90;;;;;;;;;;5095019;28;20448;-62
2023/09/26 04:00:39;;;;;;;0.80;0.80;;;;;;;;;;5094980;28;20436;-62
2023/09/26 04:03:06;;;;;;;0.83;0.83;;;;;;;;;;5095101;28;20514;-62
2023/09/26 04:05:33;;;;;;;0.80;0.80;;;;;;;;;;5095112;28;20524;-62
2023/09/26 04:08:01;;;;;;;0.80;0.80;;;;;;;;;;5094460;28;20448;-62
2023/09/26 04:10:28;;;;;;;0.80;0.80;;;;;;;;;;5095093;28;20458;-62
2023/09/26 04:12:55;;;;;;;0.80;0.80;;;;;;;;;;5094874;28;20436;-62
2023/09/26 04:15:22;;;;;;;0.90;0.90;;;;;;;;;;5095242;28;20435;-62
2023/09/26 04:17:51;;;;;;;0.80;0.80;;;;;;;;;;5095077;28;20518;-62
2023/09/26 04:20:20;;;;;;;0.80;0.80;;;;;;;;;;5095006;28;20494;-62
2023/09/26 04:22:47;;;;;;;0.80;0.80;;;;;;;;;;5094424;28;20439;-62
2023/09/26 04:25:15;;;;;;;0.87;0.87;;;;;;;;;;5105600;28;20466;-63
2023/09/26 04:27:42;;;;;;;0.80;0.80;;;;;;;;;;5114965;28;20477;-63
2023/09/26 04:30:12;;;;;;;0.80;0.80;;;;;;;;;;5115171;28;20443;-62
2023/09/26 04:32:39;;;;;;;0.90;0.90;;;;;;;;;;5114870;28;20443;-63
2023/09/26 04:35:08;;;;;;;0.80;0.80;;;;;;;;;;5114843;28;20471;-62
2023/09/26 04:37:36;;;;;;;0.90;0.90;;;;;;;;;;5115266;28;20444;-62
2023/09/26 04:40:10;;;;;;;0.80;0.80;;;;;;;;;;5114913;28;20439;-68
2023/09/26 04:42:37;;;;;;;0.80;0.80;;;;;;;;;;5115004;28;20431;-65
2023/09/26 04:45:04;;;;;;;1.00;1.00;;;;;;;;;;5114705;28;21031;-65
2023/09/26 04:47:31;;;;;;;0.80;0.80;;;;;;;;;;5114582;28;20484;-66
2023/09/26 04:49:59;;;;;;;0.80;0.80;;;;;;;;;;5114641;28;20441;-66
2023/09/26 04:52:27;;;;;;;0.80;0.80;;;;;;;;;;5114426;28;20941;-68
2023/09/26 04:54:55;;;;;;;0.80;0.80;;;;;;;;;;5115415;28;20442;-67
2023/09/26 04:57:22;;;;;;;0.80;0.80;;;;;;;;;;5114459;28;20434;-66
2023/09/26 04:59:49;;;;;;;0.90;0.90;;;;;;;;;;5114667;28;20803;-66
2023/09/26 05:02:16;;;;;;;0.90;0.90;;;;;;;;;;5114671;28;20438;-66
2023/09/26 05:04:45;;;;;;;0.80;0.80;;;;;;;;;;5114692;28;20435;-66
2023/09/26 05:07:19;;;;;;;0.80;0.80;;;;;;;;;;5114571;28;20561;-66
2023/09/26 05:09:47;;;;;;;0.80;0.80;;;;;;;;;;5114621;28;20457;-67
2023/09/26 05:12:14;;;;;;;0.80;0.80;;;;;;;;;;5114502;28;20438;-66
2023/09/26 05:14:42;;;;;;;0.80;0.80;;;;;;;;;;5114158;28;20987;-66
2023/09/26 05:17:09;;;;;;;0.80;0.80;;;;;;;;;;5114196;28;20958;-66
2023/09/26 05:19:36;;;;;;;0.80;0.80;;;;;;;;;;5114315;28;20440;-66
2023/09/26 05:22:03;;;;;;;0.90;0.90;;;;;;;;;;5114600;28;20430;-66
2023/09/26 05:24:30;;;;;;;0.90;0.90;;;;;;;;;;5113865;28;20505;-66
2023/09/26 05:26:59;;;;;;;0.80;0.80;;;;;;;;;;5114147;28;20462;-66
2023/09/26 05:29:26;;;;;;;0.90;0.90;;;;;;;;;;5113943;28;20944;-66
2023/09/26 05:31:53;;;;;;;0.80;0.80;;;;;;;;;;5114321;28;20794;-66
2023/09/26 05:34:20;;;;;;;0.80;0.80;;;;;;;;;;5113907;28;20430;-66
2023/09/26 05:36:48;;;;;;;0.80;0.80;;;;;;;;;;5114024;28;20500;-66
2023/09/26 05:39:15;;;;;;;1.10;1.10;;;;;;;;;;5113791;28;20957;-66
2023/09/26 05:41:42;;;;;;;0.90;0.90;;;;;;;;;;5114330;28;20794;-66
2023/09/26 05:44:13;;;;;;;0.80;0.80;;;;;;;;;;5114452;28;20523;-66
2023/09/26 05:46:40;;;;;;;0.90;0.90;;;;;;;;;;5114080;28;20463;-66
2023/09/26 05:49:07;;;;;;;0.90;0.90;;;;;;;;;;5113946;28;20534;-66
2023/09/26 05:51:34;;;;;;;0.90;0.90;;;;;;;;;;5114073;28;20621;-66
2023/09/26 05:54:01;;;;;;;0.80;0.80;;;;;;;;;;5113914;28;20541;-66
2023/09/26 05:56:29;;;;;;;0.83;0.83;;;;;;;;;;5113518;28;20526;-66
2023/09/26 05:58:56;;;;;;;0.83;0.83;;;;;;;;;;5113550;28;20442;-66
2023/09/26 06:01:24;;;;;;;0.80;0.80;;;;;;;;;;5113484;28;20445;-66
2023/09/26 06:03:51;;;;;;;0.80;0.80;;;;;;;;;;5113653;28;20197;-66
2023/09/26 06:06:19;;;;;;;0.80;0.80;;;;;;;;;;5113594;28;20483;-66
2023/09/26 06:08:46;;;;;;;0.80;0.80;;;;;;;;;;5113245;28;20958;-66
2023/09/26 06:11:14;;;;;;;0.90;0.90;;;;;;;;;;5113624;28;20535;-66
2023/09/26 06:13:42;;;;;;;0.90;0.90;;;;;;;;;;5113034;28;20521;-66
2023/09/26 06:16:09;;;;;;;0.80;0.80;;;;;;;;;;5113492;28;20446;-66
2023/09/26 06:18:38;;;;;;;0.80;0.80;;;;;;;;;;5113775;28;20530;-66
2023/09/26 06:21:06;;;;;;;0.80;0.80;;;;;;;;;;5113267;28;20785;-66
2023/09/26 06:23:34;;;;;;;0.80;0.80;;;;;;;;;;5113477;28;20443;-66
2023/09/26 06:26:02;;;;;;;0.80;0.80;;;;;;;;;;5114375;28;20555;-66
2023/09/26 06:28:29;;;;;;;0.80;0.80;;;;;;;;;;5113582;28;20552;-66
2023/09/26 06:30:57;;;;;;;0.80;0.80;;;;;;;;;;5113210;28;20928;-66
2023/09/26 06:33:24;;;;;;;0.83;0.83;;;;;;;;;;5113885;28;20446;-66
2023/09/26 06:35:52;;;;;;;0.80;0.80;;;;;;;;;;5113532;28;20439;-66
2023/09/26 06:38:20;;;;;;;0.80;0.80;;;;;;;;;;5113631;28;20813;-66
2023/09/26 06:40:47;;;;;;;0.80;0.80;;;;;;;;;;5113358;28;20435;-66
2023/09/26 06:43:14;;;;;;;0.80;0.80;;;;;;;;;;5113234;28;20938;-66
2023/09/26 06:45:41;;;;;;;0.80;0.80;;;;;;;;;;5113380;28;20522;-66
2023/09/26 06:48:08;;;;;;;0.80;0.80;;;;;;;;;;5116373;28;20562;-66
2023/09/26 06:50:36;;;;;;;0.80;0.80;;;;;;;;;;5117357;28;20521;-66
2023/09/26 06:53:04;;;;;;;1.00;1.00;;;;;;;;;;5117044;28;20446;-66
2023/09/26 06:55:34;;;;;;;0.80;0.80;;;;;;;;;;5117275;28;20532;-66
2023/09/26 06:58:01;;;;;;;0.80;0.80;;;;;;;;;;5117273;28;20497;-66
2023/09/26 07:00:28;;;;;;;0.80;0.80;;;;;;;;;;5117315;28;20442;-66
2023/09/26 07:02:55;;;;;;;0.80;0.80;;;;;;;;;;5118272;28;20444;-66
2023/09/26 07:05:23;;;;;;;0.80;0.80;;;;;;;;;;5116714;28;20484;-66
2023/09/26 07:07:50;;;;;;;0.80;0.80;;;;;;;;;;5116965;28;20878;-66
2023/09/26 07:10:19;;;;;;;0.80;0.80;;;;;;;;;;5117512;28;20462;-66
2023/09/26 07:12:46;;;;;;;0.70;0.70;;;;;;;;;;5116936;28;20445;-66
2023/09/26 07:15:13;;;;;;;0.80;0.80;;;;;;;;;;5117204;28;20443;-66
2023/09/26 07:17:40;;;;;;;0.80;0.80;;;;;;;;;;5116902;28;20535;-66
2023/09/26 07:20:13;;;;;;;0.80;0.80;;;;;;;;;;5116799;28;20535;-66
2023/09/26 07:22:40;;;;;;;0.80;0.80;;;;;;;;;;5116590;28;20449;-66
2023/09/26 07:25:08;;;;;;;0.80;0.80;;;;;;;;;;5116492;28;20472;-66
2023/09/26 07:27:37;;;;;;;0.80;0.80;;;;;;;;;;5116710;28;20526;-66
2023/09/26 07:30:05;;;;;;;0.80;0.80;;;;;;;;;;5116260;28;20997;-66
2023/09/26 07:32:34;;;;;;;0.80;0.80;;;;;;;;;;5116913;28;20524;-66
2023/09/26 07:35:02;;;;;;;0.80;0.80;;;;;;;;;;5116502;28;20496;-66
2023/09/26 07:37:29;;;;;;;0.80;0.80;;;;;;;;;;5116586;28;20472;-66
2023/09/26 07:39:56;;;;;;;0.80;0.80;;;;;;;;;;5115987;28;20535;-66
2023/09/26 07:42:23;;;;;;;0.80;0.80;;;;;;;;;;5116211;28;20433;-66
2023/09/26 07:44:52;;;;;;;0.70;0.70;;;;;;;;;;5116248;28;20521;-66
2023/09/26 07:47:19;;;;;;;0.73;0.73;;;;;;;;;;5115725;28;20484;-66
2023/09/26 07:49:46;;;;;;;0.80;0.80;;;;;;;;;;5115981;28;20600;-67
2023/09/26 07:52:13;;;;;;;0.80;0.80;;;;;;;;;;5115992;28;20442;-66
2023/09/26 07:54:40;;;;;;;0.80;0.80;;;;;;;;;;5116350;28;21008;-66
2023/09/26 07:57:08;;;;;;;0.80;0.80;;;;;;;;;;5115961;28;20924;-66
2023/09/26 07:59:37;;;;;;;0.80;0.80;;;;;;;;;;5116029;28;20864;-66
2023/09/26 08:02:06;;;;;;;0.80;0.80;;;;;;;;;;5115837;28;20840;-66
2023/09/26 08:04:33;;;;;;;0.80;0.80;;;;;;;;;;5116106;28;20442;-66
2023/09/26 08:07:00;;;;;;;0.80;0.80;;;;;;;;;;5116080;28;20478;-66
2023/09/26 08:09:27;;;;;;;0.80;0.80;;;;;;;;;;5115965;28;20513;-66
2023/09/26 08:11:55;;;;;;;0.70;0.70;;;;;;;;;;5115554;28;21065;-66
2023/09/26 08:14:22;;;;;;;0.70;0.70;;;;;;;;;;5115861;28;20823;-66
2023/09/26 08:16:49;;;;;;;0.80;0.80;;;;;;;;;;5115408;28;20435;-66
2023/09/26 08:19:18;;;;;;;0.80;0.80;;;;;;;;;;5115719;28;20886;-67
2023/09/26 08:21:45;;;;;;;0.70;0.70;;;;;;;;;;5115559;28;20515;-66
2023/09/26 08:24:12;;;;;;;0.80;0.80;;;;;;;;;;5115547;28;20436;-66
2023/09/26 08:26:39;;;;;;;0.70;0.70;;;;;;;;;;5115508;28;20513;-66
2023/09/26 08:29:07;;;;;;;0.80;0.80;;;;;;;;;;5115450;28;20515;-66
2023/09/26 08:31:36;;;;;;;0.80;0.80;;;;;;;;;;5115417;28;20466;-66
2023/09/26 08:34:05;;;;;;;0.70;0.70;;;;;;;;;;5115468;28;20442;-66
2023/09/26 08:36:34;;;;;;;1.30;1.27;;;;;;;;;;5114982;28;20938;-66
2023/09/26 08:39:01;;;;;;;0.80;0.80;;;;;;;;;;5115351;28;20452;-66
2023/09/26 08:41:29;;;;;;;0.70;0.70;;;;;;;;;;5115115;28;20519;-66
2023/09/26 08:43:56;;;;;;;0.70;0.70;;;;;;;;;;5114886;28;20445;-66
2023/09/26 08:46:23;;;;;;;0.70;0.70;;;;;;;;;;5114778;28;20449;-66
2023/09/26 08:48:50;;;;;;;0.70;0.70;;;;;;;;;;5115286;28;20531;-66
2023/09/26 08:51:18;;;;;;;0.70;0.70;;;;;;;;;;5114645;28;20448;-66
2023/09/26 08:53:46;;;;;;;0.70;0.70;;;;;;;;;;5115323;28;20440;-66
2023/09/26 08:56:14;;;;;;;0.80;0.80;;;;;;;;;;5115295;28;20519;-66
2023/09/26 08:58:42;;;;;;;0.80;0.80;;;;;;;;;;5115300;28;20441;-66
2023/09/26 09:01:09;;;;;;;0.70;0.70;;;;;;;;;;5114540;28;20846;-66
2023/09/26 09:03:37;;;;;;;0.80;0.80;;;;;;;;;;5114790;28;20433;-66
2023/09/26 09:06:04;;;;;;;0.80;0.80;;;;;;;;;;5114415;28;20448;-66
2023/09/26 09:08:32;;;;;;;0.70;0.70;;;;;;;;;;5114668;28;20478;-66
2023/09/26 09:11:00;;;;;;;0.70;0.70;;;;;;;;;;5114042;28;20526;-66
2023/09/26 09:13:31;;;;;;;0.70;0.70;;;;;;;;;;5114375;28;20437;-66
2023/09/26 09:16:08;;;;;;;0.80;0.80;;;;;;;;;;5114478;28;20959;-66
2023/09/26 09:18:35;;;;;;;0.80;0.80;;;;;;;;;;5114326;28;20445;-66
2023/09/26 09:21:20;;;;;;;0.70;0.70;;;;;;;;;;5114723;28;20469;-66
2023/09/26 09:23:47;;;;;;;0.70;0.70;;;;;;;;;;5115117;28;20864;-66
2023/09/26 09:26:17;;;;;;;0.70;0.70;;;;;;;;;;5114461;28;20810;-66
2023/09/26 09:28:44;;;;;;;0.70;0.70;;;;;;;;;;5114356;28;20547;-66
2023/09/26 09:31:16;;;;;;;0.70;0.70;;;;;;;;;;5114331;28;20437;-66
2023/09/26 09:33:47;;;;;;;0.70;0.70;;;;;;;;;;5114056;28;20437;-66
2023/09/26 09:36:15;;;;;;;0.90;0.90;;;;;;;;;;5114967;28;20476;-66
2023/09/26 09:38:42;;;;;;;0.70;0.70;;;;;;;;;;5114191;28;20792;-66
2023/09/26 09:41:09;;;;;;;0.77;0.77;;;;;;;;;;5114067;28;20532;-66
2023/09/26 09:43:38;;;;;;;0.70;0.70;;;;;;;;;;5114281;28;20537;-66
2023/09/26 09:46:08;;;;;;;0.80;0.80;;;;;;;;;;5114101;28;20426;-66
2023/09/26 09:48:41;;;;;;;0.70;0.70;;;;;;;;;;5113705;28;20472;-66
2023/09/26 09:51:10;;;;;;;0.70;0.70;;;;;;;;;;5114182;28;20434;-66
2023/09/26 09:53:38;;;;;;;0.80;0.80;;;;;;;;;;5114029;28;20819;-66
2023/09/26 09:56:08;;;;;;;0.70;0.70;;;;;;;;;;5113949;28;20435;-66
2023/09/26 09:58:38;;;;;;;0.70;0.70;;;;;;;;;;5113687;28;20428;-66
2023/09/26 10:01:07;;;;;;;0.70;0.70;;;;;;;;;;5114000;28;20525;-66
2023/09/26 10:03:34;;;;;;;0.70;0.70;;;;;;;;;;5113501;28;20431;-66
2023/09/26 10:06:03;;;;;;;0.70;0.70;;;;;;;;;;5114106;28;20529;-66
2023/09/26 10:08:31;;;;;;;0.70;0.70;;;;;;;;;;5113697;28;20477;-67
2023/09/26 10:10:59;;;;;;;0.70;0.70;;;;;;;;;;5114114;28;20943;-66
2023/09/26 10:13:26;;;;;;;0.80;0.80;;;;;;;;;;5113383;28;20499;-66
2023/09/26 10:16:06;;;;;;;0.70;0.70;;;;;;;;;;5113432;28;20955;-66
2023/09/26 10:18:38;;;;;;;1.43;1.30;;;;;;;;;;5114042;28;20436;-67
2023/09/26 10:21:05;;;;;;;0.70;0.70;;;;;;;;;;5114112;28;20417;-66
2023/09/26 10:23:32;;;;;;;0.70;0.70;;;;;;;;;;5117138;28;20437;-67
2023/09/26 10:26:03;;;;;;;0.70;0.70;;;;;;;;;;5118762;28;20819;-67
2023/09/26 10:28:31;;;;;;;0.70;0.70;;;;;;;;;;5117965;28;20469;-67
2023/09/26 10:30:59;;;;;;;0.70;0.70;;;;;;;;;;5117731;28;20468;-67
2023/09/26 10:33:29;;;;;;;0.70;0.70;;;;;;;;;;5117877;28;20442;-65
2023/09/26 10:36:04;;;;;;;0.70;0.70;;;;;;;;;;5117520;28;20453;-65
2023/09/26 10:38:31;;;;;;;0.77;0.77;;;;;;;;;;5118041;28;20429;-65
2023/09/26 10:40:58;;;;;;;0.70;0.70;;;;;;;;;;5117188;28;20510;-65
2023/09/26 10:43:28;;;;;;;0.70;0.70;;;;;;;;;;5117447;28;20517;-65
2023/09/26 10:45:57;;;;;;;0.70;0.70;;;;;;;;;;5117699;28;20437;-65
2023/09/26 10:48:24;;;;;;;0.80;0.80;;;;;;;;;;5117342;28;20481;-65
2023/09/26 10:50:51;;;;;;;0.70;0.70;;;;;;;;;;5116993;28;20442;-65
2023/09/26 10:53:21;;;;;;;0.70;0.70;;;;;;;;;;5117518;28;20507;-65
2023/09/26 10:55:49;;;;;;;0.70;0.70;;;;;;;;;;5116971;28;20419;-65
2023/09/26 10:58:20;;;;;;;0.70;0.70;;;;;;;;;;5116800;28;20526;-65
2023/09/26 11:00:51;;;;;;;0.70;0.70;;;;;;;;;;5117438;28;20433;-65
2023/09/26 11:03:18;;;;;;;0.70;0.70;;;;;;;;;;5117162;28;20432;-66
2023/09/26 11:05:45;;;;;;;0.70;0.70;;;;;;;;;;5116840;28;20537;-65
2023/09/26 11:08:13;;;;;;;0.80;0.80;;;;;;;;;;5117307;28;20561;-65
2023/09/26 11:10:46;;;;;;;0.70;0.70;;;;;;;;;;5116860;28;20481;-65
2023/09/26 11:13:14;;;;;;;0.80;0.80;;;;;;;;;;5116947;28;20891;-65
2023/09/26 11:15:44;;;;;;;0.77;0.77;;;;;;;;;;5117298;28;20536;-65
2023/09/26 11:18:12;;;;;;;0.70;0.70;;;;;;;;;;5117131;28;20440;-65
2023/09/26 11:20:40;;;;;;;0.70;0.70;;;;;;;;;;5116841;28;20442;-65
2023/09/26 11:23:07;;;;;;;0.70;0.70;;;;;;;;;;5117258;28;20447;-65
2023/09/26 11:25:34;;;;;;;0.70;0.70;;;;;;;;;;5116933;28;20557;-65
2023/09/26 11:28:03;;;;;;;0.80;0.80;;;;;;;;;;5116675;28;22363;-65
2023/09/26 11:30:31;;;;;;;0.70;0.70;;;;;;;;;;5116407;28;20439;-64
2023/09/26 11:32:58;;;;;;;0.70;0.70;;;;;;;;;;5115967;28;20515;-64
2023/09/26 11:35:26;;;;;;;0.70;0.70;;;;;;;;;;5116758;28;20478;-63
2023/09/26 11:37:54;;;;;;;0.70;0.70;;;;;;;;;;5116595;28;20433;-64
2023/09/26 11:40:22;;;;;;;0.70;0.70;;;;;;;;;;5116618;28;20441;-62
2023/09/26 11:42:51;;;;;;;0.80;0.80;;;;;;;;;;5120021;27;20426;-65
2023/09/26 11:45:24;;;;;;;0.70;0.70;;;;;;;;;;5136514;27;20438;-64
2023/09/26 11:47:52;;;;;;;0.80;0.80;;;;;;;;;;5136294;27;20926;-64
2023/09/26 11:50:19;;;;;;;0.70;0.70;;;;;;;;;;5136598;27;20436;-64
2023/09/26 11:52:47;;;;;;;0.70;0.70;;;;;;;;;;5135465;27;20532;-64
2023/09/26 11:55:17;;;;;;;0.70;0.70;;;;;;;;;;5135700;27;20929;-64
2023/09/26 11:57:45;;;;;;;0.70;0.70;;;;;;;;;;5136122;27;20441;-64
2023/09/26 12:00:15;;;;;;;0.80;0.80;;;;;;;;;;5135738;27;20529;-64
2023/09/26 12:02:44;;;;;;;0.70;0.70;;;;;;;;;;5136089;27;20429;-64
2023/09/26 12:05:11;;;;;;;0.80;0.80;;;;;;;;;;5135976;27;20527;-64
2023/09/26 12:07:39;;;;;;;0.70;0.70;;;;;;;;;;5136095;27;20532;-63
2023/09/26 12:10:07;;;;;;;0.80;0.80;;;;;;;;;;5135983;27;20477;-64
2023/09/26 12:12:34;;;;;;;0.70;0.70;;;;;;;;;;5136089;27;20496;-64
2023/09/26 12:15:16;;;;;;;0.70;0.70;;;;;;;;;;5136012;27;20487;-64
2023/09/26 12:17:45;;;;;;;0.70;0.70;;;;;;;;;;5136512;27;20465;-64
2023/09/26 12:20:13;;;;;;;0.70;0.70;;;;;;;;;;5135939;27;20442;-64
2023/09/26 12:22:40;;;;;;;3.47;1.63;;;;;;;;;;5135642;27;20440;-63
2023/09/26 12:25:08;;;;;;;0.80;0.80;;;;;;;;;;5135248;27;20465;-64
2023/09/26 12:27:35;;;;;;;0.70;0.70;;;;;;;;;;5135384;27;20927;-64
2023/09/26 12:30:02;;;;;;;0.70;0.70;;;;;;;;;;5135527;27;20564;-63
2023/09/26 12:32:29;;;;;;;0.77;0.77;;;;;;;;;;5135899;27;20431;-64
2023/09/26 12:34:58;;;;;;;0.70;0.70;;;;;;;;;;5135798;27;20712;-64
2023/09/26 12:37:25;;;;;;;0.70;0.70;;;;;;;;;;5135265;27;20482;-64
2023/09/26 12:39:52;;;;;;;0.70;0.70;;;;;;;;;;5135730;27;20775;-63
2023/09/26 12:42:20;;;;;;;0.70;0.70;;;;;;;;;;5135557;27;20526;-64
2023/09/26 12:44:47;;;;;;;0.70;0.70;;;;;;;;;;5134135;27;20545;-64
2023/09/26 12:47:14;;;;;;;0.70;0.70;;;;;;;;;;5135463;27;20472;-62
2023/09/26 12:49:43;;;;;;;0.70;0.70;;;;;;;;;;5134849;27;20493;-64
2023/09/26 12:52:11;;;;;;;0.70;0.70;;;;;;;;;;5135175;27;20454;-64
2023/09/26 12:54:38;;;;;;;0.70;0.70;;;;;;;;;;5135350;27;20481;-64
2023/09/26 12:57:06;;;;;;;0.70;0.70;;;;;;;;;;5134751;27;20439;-64
2023/09/26 12:59:34;;;;;;;0.70;0.70;;;;;;;;;;5135046;27;20492;-64
2023/09/26 13:02:01;;;;;;;0.70;0.70;;;;;;;;;;5135102;27;20446;-64
2023/09/26 13:04:29;;;;;;;0.70;0.70;;;;;;;;;;5134667;27;20892;-64
2023/09/26 13:06:56;;;;;;;0.70;0.70;;;;;;;;;;5134788;27;20915;-64
2023/09/26 13:09:24;;;;;;;0.70;0.70;;;;;;;;;;5134771;27;20589;-64
2023/09/26 13:11:52;;;;;;;0.70;0.70;;;;;;;;;;5134764;27;20496;-63
2023/09/26 13:14:20;;;;;;;0.70;0.70;;;;;;;;;;5134510;27;20541;-64
2023/09/26 13:16:47;;;;;;;0.80;0.80;;;;;;;;;;5135064;27;20432;-64
2023/09/26 13:19:15;;;;;;;0.70;0.70;;;;;;;;;;5134504;27;20529;-64
2023/09/26 13:21:42;;;;;;;0.70;0.70;;;;;;;;;;5134346;27;20435;-63
2023/09/26 13:24:09;;;;;;;0.70;0.70;;;;;;;;;;5134679;27;20439;-64
2023/09/26 13:26:38;;;;;;;0.80;0.80;;;;;;;;;;5134661;27;20513;-64
2023/09/26 13:29:06;;;;;;;0.70;0.70;;;;;;;;;;5134226;27;20988;-64
2023/09/26 13:31:33;;;;;;;0.80;0.80;;;;;;;;;;5134487;27;20448;-64
2023/09/26 13:34:01;;;;;;;0.70;0.70;;;;;;;;;;5134577;27;20865;-64
2023/09/26 13:36:28;;;;;;;0.80;0.80;;;;;;;;;;5134362;27;20467;-64
2023/09/26 13:38:55;;;;;;;0.70;0.70;;;;;;;;;;5134161;27;20540;-62
2023/09/26 13:41:23;;;;;;;0.70;0.70;;;;;;;;;;5134206;27;20449;-64
2023/09/26 13:43:51;;;;;;;0.70;0.70;;;;;;;;;;5134404;27;20505;-64
2023/09/26 13:46:18;;;;;;;0.70;0.70;;;;;;;;;;5133904;27;20467;-65
2023/09/26 13:48:46;;;;;;;0.70;0.70;;;;;;;;;;5134218;27;20436;-65
2023/09/26 13:51:13;;;;;;;0.70;0.70;;;;;;;;;;5134200;27;20432;-66
2023/09/26 13:53:40;;;;;;;0.80;0.80;;;;;;;;;;5134229;27;20533;-65
2023/09/26 13:56:07;;;;;;;0.70;0.70;;;;;;;;;;5133525;27;20442;-65
2023/09/26 13:58:35;;;;;;;0.80;0.80;;;;;;;;;;5133923;27;20849;-65
2023/09/26 14:01:04;;;;;;;0.70;0.70;;;;;;;;;;5133908;27;20522;-65
2023/09/26 14:03:31;;;;;;;0.70;0.70;;;;;;;;;;5134451;27;20459;-65
2023/09/26 14:05:59;;;;;;;1.30;1.20;;;;;;;;;;5134095;27;20451;-65
2023/09/26 14:08:26;;;;;;;0.70;0.70;;;;;;;;;;5134103;27;20552;-65
2023/09/26 14:10:53;;;;;;;1.20;1.10;;;;;;;;;;5133560;27;20570;-65
2023/09/26 14:13:23;;;;;;;0.70;0.70;;;;;;;;;;5133882;27;20457;-65
2023/09/26 14:15:51;;;;;;;0.80;0.80;;;;;;;;;;5133750;27;20442;-63
2023/09/26 14:18:20;;;;;;;0.70;0.70;;;;;;;;;;5133622;28;20451;-63
2023/09/26 14:20:48;;;;;;;0.70;0.70;;;;;;;;;;5133701;28;20440;-62
2023/09/26 14:23:15;;;;;;;0.70;0.70;;;;;;;;;;5133497;28;20476;-68
2023/09/26 14:25:42;;;;;;;0.73;0.73;;;;;;;;;;5133970;28;20473;-62
2023/09/26 14:28:09;;;;;;;0.70;0.70;;;;;;;;;;5133865;28;20869;-62
2023/09/26 14:30:36;;;;;;;0.70;0.70;;;;;;;;;;5133558;28;20508;-63
2023/09/26 14:33:04;;;;;;;0.70;0.70;;;;;;;;;;5133483;28;20447;-62
2023/09/26 14:35:32;;;;;;;0.70;0.70;;;;;;;;;;5133520;28;20436;-63
2023/09/26 14:37:59;;;;;;;0.70;0.70;;;;;;;;;;5133998;28;20535;-62
2023/09/26 14:40:27;;;;;;;0.70;0.70;;;;;;;;;;5133815;28;20480;-62
2023/09/26 14:42:54;;;;;;;0.77;0.77;;;;;;;;;;5133857;28;20523;-62
2023/09/26 14:45:21;;;;;;;0.70;0.70;;;;;;;;;;5133633;28;20989;-62
2023/09/26 14:47:48;;;;;;;0.80;0.80;;;;;;;;;;5133655;28;20455;-62